Maggie Valley, NC

11:39 AM EDT on August 30, 2014 (GMT -0400)
Maggie Valley | Change Station
CLOSE
Current Station
Personal Weather Station
Location: Maggie Valley, NC
Elevation: 3038 ft
Nearby Weather Stations

Elev 3038 ft 35.52 °N, 83.10 °W | Updated 16 seconds ago

Partly Cloudy
Partly Cloudy
81.2 °F
Feels Like 83 °F
N
5.0
Wind Variable Wind from North
Gusts 6.0 mph

Today
High -- | Low -- °F
--% Chance of Precip.
Yesterday
High -- | Low -- °F
Precip. -- in
7:03 AM 8:02 PM
Waxing Crescent, 22% visible
Pressure 30.19 in
Visibility 10.0 miles
Clouds Few 600 ft
Heat Index 83 °F
Dew Point 64 °F
Humidity 55%
Rainfall 0.00 in
Snow Depth Not available.
UV 6 out of 12
Pollen 9.10 out of 12
Ozone Good
PM2.5 Moderate
Flu Activity Not available.
METAR KAVL 301454Z VRB03KT 10SM FEW006 24/19 A3027 RMK AO2 SLP223 T02390194 58000 $

More Conditions Fewer Conditions

Pressure 30.19 in
Visibility 10.0 miles
Clouds Few 600 ft
Heat Index 83 °F
Dew Point 64 °F
Humidity 55%
Rainfall 0.00 in
Snow Depth Not available.
UV 6 out of 12
Pollen 9.10 out of 12
Ozone Good
PM2.5 Moderate
Flu Activity Not available.
METAR KAVL 301454Z VRB03KT 10SM FEW006 24/19 A3027 RMK AO2 SLP223 T02390194 58000 $

More Conditions Fewer Conditions

10-Day Weather Forecast

Almanac

Astronomy

Aug. 30, 2014 Rise Set
Actual Time 7:03 AM EDT 8:02 PM EDT
Civil Twilight 6:36 AM EDT 8:28 PM EDT
Nautical Twilight 6:05 AM EDT 8:59 PM EDT
Astronomical Twilight 5:33 AM EDT 9:31 PM EDT
Moon 11:38 AM EDT 10:47 PM EDT
Length of Visible Light 13h 51m
Length of Day
12h 59m
Tomorrow will be 2m 8s shorter.
Waxing Crescent, 22% of the Moon is Illuminated
Today
Waxing Crescent
Sep 2
First Quarter
Sep 8
Full
Sep 15
Last Quarter
Sep 24
New

Today's Extremes

State Highs State Lows

Community

WunderPhotos

Upload Photos

1,748,551 photos uploaded!

WunderBlogs® & News

Nearby

Air Quality

  Air Quality AQ Index Pollutant
Yesterday Moderate
PM2.5
Yesterday Good
OZONE
Current Moderate
PM2.5
Current Good
OZONE
Saturday Good
PM2.5
Saturday Good
OZONE
Sunday Good
PM2.5
Sunday Good
OZONE
Monday Good
PM2.5
Monday Good
OZONE

Snow Depth

Station Depth Elevation
No new snow has been reported.

Earthquake Activity

City Distance Mag. Time & Date
No recent earthquake activity has been reported nearby.
Minimum magnitude displayed is 2.5.

Coastal Water Temperatures

Place Temperature
No Stations Reporting

Nearby Weather Stations